createdAt,value
2023-03-15T00:02:08.274Z,32.70
2023-03-15T00:07:30.119Z,32.70
2023-03-15T00:12:51.767Z,32.72
2023-03-15T00:18:14.204Z,32.70
2023-03-15T00:23:36.044Z,32.48
2023-03-15T00:28:57.865Z,32.70
2023-03-15T00:34:23.985Z,32.69
2023-03-15T00:39:47.251Z,32.82
2023-03-15T00:45:10.686Z,32.54
2023-03-15T00:50:32.356Z,32.69
2023-03-15T00:55:54.046Z,32.48
2023-03-15T01:01:25.297Z,32.88
2023-03-15T01:06:47.185Z,32.49
2023-03-15T01:12:08.919Z,32.78
2023-03-15T01:17:30.665Z,32.92
2023-03-15T01:22:52.367Z,32.86
2023-03-15T01:28:14.301Z,32.80
2023-03-15T01:33:36.137Z,32.62
2023-03-15T01:38:58.018Z,32.96
2023-03-15T01:44:20.317Z,33.20
2023-03-15T01:49:46.395Z,32.65
2023-03-15T01:55:12.617Z,32.86
2023-03-15T02:00:35.017Z,32.94
2023-03-15T02:06:05.560Z,32.99
2023-03-15T02:11:27.897Z,33.22
2023-03-15T02:16:49.842Z,32.81
2023-03-15T02:22:43.253Z,33.11
2023-03-15T02:28:07.115Z,33.14
2023-03-15T02:33:49.517Z,33.14
2023-03-15T02:39:20.170Z,33.21
2023-03-15T02:44:44.174Z,33.13
2023-03-15T02:50:07.803Z,33.24
2023-03-15T02:55:33.021Z,33.20
2023-03-15T03:00:54.799Z,33.35
2023-03-15T03:06:17.995Z,33.05
2023-03-15T03:11:39.715Z,33.41
2023-03-15T03:17:01.899Z,32.97
2023-03-15T03:22:24.810Z,33.39
2023-03-15T03:27:46.748Z,33.01
2023-03-15T03:33:08.628Z,33.26
2023-03-15T03:38:30.575Z,33.36
2023-03-15T03:43:52.303Z,33.05
2023-03-15T03:49:15.320Z,33.50
2023-03-15T03:54:37.045Z,33.14
2023-03-15T03:59:59.030Z,32.96
2023-03-15T04:05:21.291Z,33.02
2023-03-15T04:10:42.995Z,32.88
2023-03-15T04:16:07.205Z,32.88
2023-03-15T04:21:32.249Z,32.91
2023-03-15T04:26:58.093Z,32.97
2023-03-15T04:32:20.217Z,33.17
2023-03-15T04:37:42.647Z,32.90
2023-03-15T04:43:06.075Z,33.24
2023-03-15T04:48:28.554Z,33.07
2023-03-15T04:53:50.600Z,33.17
2023-03-15T04:59:12.358Z,33.08
2023-03-15T05:04:34.404Z,32.94
2023-03-15T05:09:56.053Z,33.13
2023-03-15T05:15:18.835Z,33.22
2023-03-15T05:20:40.948Z,33.38
2023-03-15T05:26:03.870Z,33.02
2023-03-15T05:31:25.677Z,33.45
2023-03-15T05:36:47.474Z,33.49
2023-03-15T05:42:09.182Z,33.05
2023-03-15T05:47:32.491Z,33.32
2023-03-15T05:52:56.494Z,33.32
2023-03-15T05:58:18.302Z,33.12
2023-03-15T06:03:40.421Z,33.21
2023-03-15T06:09:02.203Z,33.53
2023-03-15T06:14:23.882Z,33.13
2023-03-15T06:19:45.716Z,32.05
2023-03-15T06:25:08.080Z,31.75
2023-03-15T06:30:29.953Z,31.08
2023-03-15T06:35:51.740Z,30.94
2023-03-15T06:41:15.729Z,31.00
2023-03-15T06:46:37.834Z,30.94
2023-03-15T06:51:59.701Z,30.76
2023-03-15T06:57:21.431Z,30.72
2023-03-15T07:02:43.251Z,31.19
2023-03-15T07:08:05.238Z,30.84
2023-03-15T07:13:27.088Z,31.33
2023-03-15T07:18:49.000Z,31.41
2023-03-15T07:24:10.870Z,31.12
2023-03-15T07:29:32.827Z,31.38
2023-03-15T07:34:58.396Z,31.64
2023-03-15T07:40:20.131Z,31.42
2023-03-15T07:45:42.539Z,31.46
2023-03-15T07:51:04.522Z,32.09
2023-03-15T07:56:26.489Z,31.57
2023-03-15T08:01:48.230Z,31.96
2023-03-15T08:07:10.083Z,31.21
2023-03-15T08:12:33.525Z,29.54
2023-03-15T08:17:55.344Z,26.35
2023-03-15T08:23:17.087Z,23.43
2023-03-15T08:28:38.832Z,22.28
2023-03-15T08:34:00.558Z,21.63
2023-03-15T08:39:24.199Z,22.93
2023-03-15T08:44:45.928Z,24.38
2023-03-15T08:50:13.426Z,25.54
2023-03-15T08:55:35.285Z,26.55
2023-03-15T09:00:57.577Z,27.05
2023-03-15T09:06:19.485Z,27.62
2023-03-15T09:11:41.431Z,28.10
2023-03-15T09:17:03.429Z,28.56
2023-03-15T09:22:38.555Z,28.85
2023-03-15T09:28:05.824Z,28.91
2023-03-15T09:33:27.518Z,29.26
2023-03-15T09:38:49.313Z,29.38
2023-03-15T09:44:17.931Z,29.93
2023-03-15T09:49:55.294Z,29.91
2023-03-15T09:55:25.551Z,30.06
2023-03-15T10:00:57.452Z,30.72
2023-03-15T10:06:20.788Z,30.43
2023-03-15T10:11:54.609Z,30.57
2023-03-15T10:17:24.717Z,30.95
2023-03-15T10:23:02.331Z,30.78
2023-03-15T10:28:31.299Z,30.52
2023-03-15T10:33:56.404Z,29.31
2023-03-15T10:39:19.493Z,27.93
2023-03-15T10:44:41.229Z,27.38
2023-03-15T10:50:03.125Z,27.18
2023-03-15T10:55:42.892Z,26.80
2023-03-15T11:01:07.735Z,27.07
2023-03-15T11:06:29.629Z,27.70
2023-03-15T11:11:54.243Z,27.42
2023-03-15T11:17:20.590Z,28.13
2023-03-15T11:22:42.747Z,28.52
2023-03-15T11:28:04.653Z,28.35
2023-03-15T11:33:45.839Z,28.21
2023-03-15T11:39:13.689Z,28.45
2023-03-15T11:44:55.579Z,28.35
2023-03-15T11:50:17.441Z,28.60
2023-03-15T11:55:39.281Z,28.64
2023-03-15T12:01:04.170Z,28.89
2023-03-15T12:06:37.989Z,28.83
2023-03-15T12:12:19.091Z,28.85
2023-03-15T12:17:50.734Z,29.07
2023-03-15T12:23:13.484Z,29.12
2023-03-15T12:29:04.502Z,29.61
2023-03-15T12:34:31.917Z,29.52
2023-03-15T12:40:02.928Z,29.43
2023-03-15T12:45:27.405Z,29.85
2023-03-15T12:50:58.447Z,30.13
2023-03-15T12:56:42.758Z,29.99
2023-03-15T13:02:35.733Z,29.84
2023-03-15T13:08:23.373Z,30.08
2023-03-15T13:14:23.924Z,30.00
2023-03-15T13:19:50.687Z,30.11
2023-03-15T13:25:23.050Z,30.06
2023-03-15T13:30:49.590Z,29.99
2023-03-15T13:36:16.994Z,29.25
2023-03-15T13:41:38.946Z,29.23
2023-03-15T13:47:01.154Z,28.68
2023-03-15T13:52:23.045Z,28.39
2023-03-15T13:57:45.102Z,28.90
2023-03-15T14:03:13.391Z,28.82
2023-03-15T14:08:39.436Z,28.84
2023-03-15T14:14:04.407Z,29.03
2023-03-15T14:19:32.784Z,29.01
2023-03-15T14:24:54.651Z,29.30
2023-03-15T14:30:25.875Z,29.25
2023-03-15T14:35:47.572Z,29.82
2023-03-15T14:41:38.763Z,29.77
2023-03-15T14:47:00.726Z,30.07
2023-03-15T14:52:26.188Z,29.77
2023-03-15T14:57:47.867Z,29.99
2023-03-15T15:03:25.976Z,29.70
2023-03-15T15:08:49.664Z,29.81
2023-03-15T15:14:15.130Z,29.67
2023-03-15T15:19:36.691Z,29.46
2023-03-15T15:24:58.507Z,29.24
2023-03-15T15:30:23.341Z,29.10
2023-03-15T15:35:45.236Z,28.24
2023-03-15T15:41:13.662Z,28.38
2023-03-15T15:46:35.935Z,27.88
2023-03-15T15:51:57.697Z,27.60
2023-03-15T15:57:22.306Z,27.76
2023-03-15T16:02:44.068Z,27.70
2023-03-15T16:08:06.386Z,27.81
2023-03-15T16:13:28.195Z,27.96
2023-03-15T16:18:50.124Z,28.16
2023-03-15T16:24:14.054Z,28.79
2023-03-15T16:29:38.903Z,29.10
2023-03-15T16:35:01.369Z,29.52
2023-03-15T16:40:27.946Z,29.62
2023-03-15T16:45:49.690Z,30.40
2023-03-15T16:51:14.778Z,31.01
2023-03-15T16:56:37.236Z,31.04
2023-03-15T17:01:59.142Z,31.37
2023-03-15T17:07:37.368Z,31.72
2023-03-15T17:13:00.979Z,32.10
2023-03-15T17:18:24.314Z,32.73
2023-03-15T17:23:47.865Z,33.29
2023-03-15T17:29:11.104Z,34.31
2023-03-15T17:34:34.290Z,34.77
2023-03-15T17:39:57.017Z,34.82
2023-03-15T17:45:25.403Z,35.18
2023-03-15T17:50:47.348Z,35.14
2023-03-15T17:56:09.796Z,35.33
2023-03-15T18:01:32.623Z,35.33
2023-03-15T18:06:55.496Z,35.36
2023-03-15T18:12:18.258Z,35.47
2023-03-15T18:17:40.786Z,35.72
2023-03-15T18:23:04.977Z,35.92
2023-03-15T18:28:27.095Z,36.20
2023-03-15T18:33:50.296Z,36.65
2023-03-15T18:39:12.285Z,37.20
2023-03-15T18:44:34.138Z,36.67
2023-03-15T18:50:04.482Z,36.46
2023-03-15T18:55:32.122Z,36.36
2023-03-15T19:00:54.006Z,36.26
2023-03-15T19:06:15.938Z,36.14
2023-03-15T19:11:42.150Z,35.98
2023-03-15T19:17:04.163Z,35.47
2023-03-15T19:22:29.202Z,35.62
2023-03-15T19:27:50.915Z,35.10
2023-03-15T19:33:12.925Z,35.05
2023-03-15T19:38:35.223Z,35.07
2023-03-15T19:43:57.357Z,35.44
2023-03-15T19:49:19.428Z,35.76
2023-03-15T19:54:41.158Z,35.79
2023-03-15T20:00:03.412Z,35.93
2023-03-15T20:05:25.765Z,36.38
2023-03-15T20:10:48.707Z,37.32
2023-03-15T20:16:10.557Z,37.68
2023-03-15T20:21:33.837Z,37.47
2023-03-15T20:26:55.607Z,38.01
2023-03-15T20:32:17.381Z,37.91
2023-03-15T20:37:40.802Z,38.20
2023-03-15T20:43:02.668Z,38.43
2023-03-15T20:48:25.328Z,38.52
2023-03-15T20:53:47.183Z,38.80
2023-03-15T20:59:11.740Z,38.93
2023-03-15T21:04:33.761Z,38.94
2023-03-15T21:09:55.999Z,39.09
2023-03-15T21:15:19.147Z,39.04
2023-03-15T21:20:41.602Z,39.02
2023-03-15T21:26:07.143Z,39.64
2023-03-15T21:31:29.114Z,39.72
2023-03-15T21:36:51.929Z,39.09
2023-03-15T21:42:14.116Z,39.21
2023-03-15T21:47:37.195Z,39.41
2023-03-15T21:52:59.237Z,39.23
2023-03-15T21:58:21.552Z,39.53
2023-03-15T22:03:44.488Z,39.33
2023-03-15T22:09:06.226Z,39.38
2023-03-15T22:14:27.905Z,39.51
2023-03-15T22:19:49.779Z,39.80
2023-03-15T22:25:11.675Z,39.40
2023-03-15T22:30:34.066Z,39.92
2023-03-15T22:35:57.694Z,39.60
2023-03-15T22:41:20.256Z,39.84
2023-03-15T22:46:42.008Z,39.32
2023-03-15T22:52:03.733Z,39.33
2023-03-15T22:57:25.578Z,39.76
2023-03-15T23:02:47.420Z,39.51
2023-03-15T23:08:09.788Z,39.21
2023-03-15T23:13:31.489Z,39.70
2023-03-15T23:18:53.298Z,39.35
2023-03-15T23:24:17.305Z,39.39
2023-03-15T23:29:53.372Z,39.47
2023-03-15T23:35:16.452Z,39.50
2023-03-15T23:40:38.213Z,39.65
2023-03-15T23:46:03.796Z,39.44
2023-03-15T23:51:25.601Z,39.37
2023-03-15T23:56:47.772Z,39.52
